Tropical Cyclones
[Index]
Main Index Home Page Stock Weather Photos Extreme Storms Discussion Storm News and Storm Chasing Reports Tropical Cyclones / Hurricanes / Typhoons Weather Data and Links Wild Fires / Bushfires Weather Observation Techniques Weather Picture Catalogue Tornado Pictures and Reports Stock Video Footage and DVDs for sale
Season 1992-1993 Tropical Cyclone 199314 Track Map
Season 1992-1993 Summaries: [BoM-AU] [JTWC-AU] [JTWC-SIO] [JTWC-SPAC] [JTWC-SH]
<<- Previous TC | JTWC 1992-1993 Season | Next TC ->>

click for intensity scale information  Lat/long Grid: Show Hide

 Date Labels: Show Hide

Joint Typhoon Warning Centre Cyclone Data

Name: 199314

25 Jan 1993 00:00 UTC to 09 Feb 1993 12:00 UTC

    date/time    lat    long     hPa   cat  kts
1993-01-25 00   11.6   136.2                  20          
1993-01-25 06   12.0   136.6                  20          
1993-01-25 12   12.2   136.8                  20          
1993-01-25 18   12.4   137.0                  25          
1993-01-26 00   12.6   137.2                  30          
1993-01-26 06   13.4   137.0                  30          
1993-01-26 12   14.1   136.4                  30          
1993-01-26 18   14.2   135.7                  35          
1993-01-27 00   14.3   135.1                  35          
1993-01-27 06   14.5   134.4                  35          
1993-01-27 12   14.7   133.8                  30          
1993-01-27 18   15.0   133.2                  25          
1993-01-28 00   15.3   132.5                  25          
1993-01-28 06   15.5   131.8                  25          
1993-01-28 12   15.6   131.0                  20          
1993-01-28 18   15.7   130.2                  20          
1993-01-29 00   15.7   129.5                  20          
1993-01-29 06   16.1   129.0                  20          
1993-01-29 12   16.6   128.5                  25          
1993-01-29 18   17.1   127.9                  25          
1993-01-30 00   17.6   127.4                  25          
1993-01-30 06   18.1   126.9                  25          
1993-01-30 12   18.7   126.3                  25          
1993-01-30 18   19.2   125.8                  25          
1993-01-31 00   19.6   125.2                  25          
1993-01-31 06   19.9   124.8                  25          
1993-01-31 12   20.2   124.4                  25          
1993-01-31 18   20.4   124.0                  25          
1993-02-01 00   20.6   123.6                  25          
1993-02-01 06   20.8   123.2                  30          
1993-02-01 12   21.1   122.7                  30          
1993-02-01 18   21.3   122.4                  30          
1993-02-02 00   21.5   121.9                  30          
1993-02-02 06   21.7   121.4                  30          
1993-02-02 12   21.9   121.0                  30          
1993-02-02 18   22.1   120.4                  30          
1993-02-03 00   22.2   119.9                  30          
1993-02-03 06   22.3   119.5                  30          
1993-02-03 12   22.5   118.9                  30          
1993-02-03 18   22.6   118.3                  30          
1993-02-04 00   22.8   117.7                  30          
1993-02-04 06   22.9   117.1                  30          
1993-02-04 12   23.0   116.4                  30          
1993-02-04 18   23.1   115.9                  30          
1993-02-05 00   23.2   115.4                  35          
1993-02-05 06   23.0   114.7                  35          
1993-02-05 12   22.9   114.1                  35          
1993-02-05 18   22.8   113.4                  35          
1993-02-06 00   22.7   112.7                  35          
1993-02-06 06   22.6   111.9                  35          
1993-02-06 12   22.4   111.1                  35          
1993-02-06 18   22.1   109.9                  35          
1993-02-07 00   21.6   108.6                  30          
1993-02-07 06   21.4   107.0                  30          
1993-02-07 12   21.2   105.2                  25          
1993-02-07 18   21.1   103.3                  25          
1993-02-08 00   21.0   101.7                  25          
1993-02-08 06   21.1   100.5                  25          
1993-02-08 12   21.2    99.6                  25          
1993-02-08 18   21.5    98.5                  25          
1993-02-09 00   22.0    97.5                  25          
1993-02-09 06   22.4    96.4                  25          
1993-02-09 12   23.1    95.4                  25          
Winds are 1-min average.

Tropical cyclone tracks developed by Michael Bath using data from the Joint Typhoon Warning Centre Best Tracks and Google Maps.


[Australian Severe Weather index] [Copyright Notice] [Email Contacts] [Search This Site] [Privacy Policy]
Document: tropical_cyclone_199314.htm Updated: 18 September 2016